オークランド の空港の天気 - METARとTAF

オークランド国際空港 ( NZAA / AKL ) - ニュージーランド オークランド|オークランド
飛行場実況気象(Metar)
観測時間09/23 11:00 NZST (09/22 23:00 UTC)
風向・風速北北東 8m/s
視程8000m
天気現象弱い雨
全天の8割程度の雲 雲底高度 240m
全天の8割程度の雲 雲底高度 550m
全天の8割程度の雲 雲底高度 1830m
気温16℃
湿度94%
気圧1003hPa
METARNZAA 222300Z AUTO 02016KT 8000 -RA BKN008/// BKN018/// BKN060/// 16/15 Q1003 BECMG SCT008 BKN020 TEMPO TL2330 4000 SHRA BKN008 TEMPO FM2330 6000 SHRA
過去の天気等 Google飛行場航空写真 Wunderground天気予報

過去48時間のMETAR

飛行場予報(TAF)
発表時間: 9/23 05:56 NZST (9/22 17:56 UTC)
予報対象時間: 23日5時 NZST ~ 24日6時 NZST
風向・風速北北東 8m/s
視程10km以上
天気現象弱い雨
全天の4割程度の雲 雲底高度 240m
全天の8割程度の雲 雲底高度 1520m
23日6時 NZST ~ 23日8時 NZST に一時的に
視程3000m
天気現象
全天の8割程度の雲 雲底高度 240m
23日8時 NZST ~ 23日16時 NZST に一時的に
視程6000m
天気現象しゅう雨
23日12時 NZST ~ 23日14時 NZST に徐々に
風向・風速西北西 6m/s
23日12時 NZST ~ 23日15時 NZST に 確率 30% で一時的に
視程2500m
天気現象雷雨
少しの積乱雲 雲底高度 610m
23日19時 NZST ~ 23日24時 NZST に一時的に
視程6000m
天気現象しゅう雨
24日0時 NZST ~ 24日2時 NZST に徐々に
風向・風速西南西 9m/s
24日0時 NZST ~ 24日6時 NZST に一時的に
視程6000m
天気現象しゅう雨
全天の8割程度の雲 雲底高度 370m
TAF AMD NZAA 221756Z 2217/2318 02015KT 9999 -RA SCT008 BKN050
TEMPO 2218/2220 3000 RA BKN008
TEMPO 2220/2304 6000 SHRA
BECMG 2300/2302 30012KT
PROB30 TEMPO 2300/2303 2500 TSRA FEW020CB
TEMPO 2307/2312 6000 SHRA
BECMG 2312/2314 24018KT
TEMPO 2312/2318 6000 SHRA BKN012